Time;durP1;ratioP1;P1;durP2;ratioP2;P2;SDS_P1;SDS_P2;PMS_P1;PMS_P2;Temp;Humidity;BMP_temperature;BMP_pressure;BME280_temperature;BME280_humidity;BME280_pressure;Samples;Min_cycle;Max_cycle;Signal;HPM_P1;HPM_P2
2022/06/18 00:01:57;;;;;;;2.35;2.15;;;;;;;25.76;39.36;101332.19;4816932;29;20404;-69
2022/06/18 00:04:25;;;;;;;5.47;2.53;;;;;;;25.74;39.47;101335.34;4819653;29;20055;-69
2022/06/18 00:07:05;;;;;;;4.28;2.40;;;;;;;25.85;39.54;101340.38;4802346;29;20063;-69
2022/06/18 00:09:42;;;;;;;2.47;2.15;;;;;;;26.00;39.24;101339.47;4813253;29;20055;-69
2022/06/18 00:15:21;;;;;;;2.72;2.53;;;;;;;25.95;39.67;101336.19;4805119;29;20054;-69
2022/06/18 00:17:52;;;;;;;2.92;2.28;;;;;;;25.88;39.98;101332.03;4807790;29;20415;-69
2022/06/18 00:20:22;;;;;;;5.00;2.55;;;;;;;25.85;40.08;101334.78;4811538;29;21852;-69
2022/06/18 00:22:54;;;;;;;2.85;2.25;;;;;;;25.84;40.41;101333.94;4809123;29;20054;-69
2022/06/18 00:25:35;;;;;;;3.58;2.70;;;;;;;25.82;40.36;101327.91;4814616;29;20059;-69
2022/06/18 00:28:10;;;;;;;3.28;2.78;;;;;;;25.79;40.42;101331.44;4825960;29;20054;-69
2022/06/18 00:30:39;;;;;;;2.22;2.03;;;;;;;25.73;40.45;101328.13;4813843;29;20402;-69
2022/06/18 00:33:07;;;;;;;3.97;2.40;;;;;;;25.70;40.59;101330.84;4818621;29;20051;-69
2022/06/18 00:35:36;;;;;;;2.95;2.65;;;;;;;25.77;40.27;101328.97;4805684;29;20051;-69
2022/06/18 00:38:07;;;;;;;2.42;2.20;;;;;;;25.91;40.29;101327.69;4820257;29;20055;-69
2022/06/18 00:40:38;;;;;;;3.47;2.33;;;;;;;25.85;39.97;101324.34;4821060;29;20051;-70
2022/06/18 00:43:11;;;;;;;2.42;2.22;;;;;;;25.81;40.11;101328.25;4815066;29;20058;-69
2022/06/18 00:45:40;;;;;;;2.13;2.03;;;;;;;25.83;40.38;101325.91;4824694;29;20545;-69
2022/06/18 00:48:27;;;;;;;4.10;2.33;;;;;;;25.80;40.13;101315.44;4826151;29;20490;-69
2022/06/18 00:51:08;;;;;;;2.97;2.67;;;;;;;25.77;40.25;101312.16;4805618;29;20051;-69
2022/06/18 00:53:56;;;;;;;2.20;2.10;;;;;;;25.74;39.76;101304.50;4824858;29;20050;-69
2022/06/18 00:56:54;;;;;;;2.67;2.30;;;;;;;25.74;39.85;101306.47;4825900;29;20729;-69
2022/06/18 00:59:44;;;;;;;4.47;2.50;;;;;;;25.74;39.58;101317.69;4816365;29;20060;-69
2022/06/18 01:02:22;;;;;;;7.10;3.00;;;;;;;25.73;40.12;101314.09;4809913;29;20046;-68
2022/06/18 01:04:52;;;;;;;4.30;2.40;;;;;;;25.73;39.89;101308.50;4798498;29;20047;-69
2022/06/18 01:07:37;;;;;;;3.35;2.38;;;;;;;25.75;39.84;101320.13;4784324;29;20517;-69
2022/06/18 01:10:14;;;;;;;3.03;2.33;;;;;;;25.73;39.78;101325.31;4805756;29;20058;-69
2022/06/18 01:12:42;;;;;;;5.40;2.40;;;;;;;25.72;39.56;101329.28;4814525;29;20062;-69
2022/06/18 01:15:13;;;;;;;2.97;2.38;;;;;;;25.80;39.68;101326.66;4799432;29;20051;-69
2022/06/18 01:17:47;;;;;;;2.63;2.42;;;;;;;25.76;39.22;101329.38;4817036;29;20050;-69
2022/06/18 01:20:17;;;;;;;2.90;2.60;;;;;;;25.74;39.78;101338.13;4799047;29;20055;-69
2022/06/18 01:23:14;;;;;;;2.25;2.15;;;;;;;25.69;39.64;101335.63;4814622;29;20058;-69
2022/06/18 01:25:42;;;;;;;3.92;2.35;;;;;;;25.70;39.92;101331.63;4812366;29;20525;-69
2022/06/18 01:28:13;;;;;;;2.95;2.70;;;;;;;25.62;39.85;101332.66;4824399;29;20054;-69
2022/06/18 01:30:42;;;;;;;5.25;2.90;;;;;;;25.56;40.01;101334.94;4818471;29;20450;-69
2022/06/18 01:33:14;;;;;;;2.58;2.38;;;;;;;25.52;40.17;101327.59;4796273;29;20051;-69
2022/06/18 01:35:49;;;;;;;2.28;2.17;;;;;;;25.65;40.16;101334.72;4808286;29;20058;-69
2022/06/18 01:38:24;;;;;;;3.08;2.50;;;;;;;25.63;40.01;101335.09;4820621;29;20050;-69
2022/06/18 01:40:54;;;;;;;;;;;;;;;25.54;40.10;101336.47;4822184;29;20046;-69
2022/06/18 01:43:24;;;;;;;2.45;2.25;;;;;;;25.51;40.29;101337.97;4820233;29;20429;-69
2022/06/18 01:46:00;;;;;;;2.83;2.33;;;;;;;25.47;40.85;101337.09;4820435;29;20058;-69
2022/06/18 01:48:39;;;;;;;3.17;2.20;;;;;;;25.45;40.46;101340.25;4815230;29;20069;-69
2022/06/18 01:51:23;;;;;;;2.25;2.10;;;;;;;25.44;40.50;101335.84;4807555;29;20046;-69
2022/06/18 01:53:58;;;;;;;2.50;2.30;;;;;;;25.45;40.58;101334.66;4822492;29;20065;-70
2022/06/18 01:56:33;;;;;;;3.35;2.47;;;;;;;25.40;40.73;101326.53;4810601;29;20065;-69
2022/06/18 01:59:07;;;;;;;2.80;2.40;;;;;;;25.46;40.64;101329.88;4823766;29;20062;-69
2022/06/18 02:01:41;;;;;;;2.88;2.65;;;;;;;25.43;40.83;101325.81;4808116;29;20050;-69
2022/06/18 02:04:11;;;;;;;2.70;2.50;;;;;;;25.41;40.98;101321.75;4818701;29;20071;-69
2022/06/18 02:06:49;;;;;;;3.00;2.70;;;;;;;25.39;40.62;101319.31;4810451;29;20054;-69
2022/06/18 02:09:39;;;;;;;2.63;2.40;;;;;;;25.37;41.06;101316.06;4816623;29;20074;-69
2022/06/18 02:12:12;;;;;;;2.67;2.47;;;;;;;25.32;40.97;101319.16;4808254;29;20065;-69
2022/06/18 02:14:44;;;;;;;4.13;2.40;;;;;;;25.38;41.29;101309.28;4822670;29;20065;-69
2022/06/18 02:17:17;;;;;;;2.78;2.40;;;;;;;25.34;41.35;101317.59;4814587;29;20058;-69
2022/06/18 02:19:48;;;;;;;;;;;;;;;25.33;41.16;101309.56;4813906;29;20063;-69
2022/06/18 02:22:18;;;;;;;2.70;2.42;;;;;;;25.35;41.21;101312.81;4815370;29;19925;-69
2022/06/18 02:24:47;;;;;;;4.20;2.42;;;;;;;25.33;41.19;101318.75;4803450;29;20044;-69
2022/06/18 02:27:16;;;;;;;2.40;2.20;;;;;;;25.33;41.17;101323.56;4821673;29;20061;-69
2022/06/18 02:29:46;;;;;;;4.18;2.30;;;;;;;25.32;41.65;101327.56;4814767;29;20509;-69
2022/06/18 02:32:25;;;;;;;2.47;2.28;;;;;;;25.25;41.69;101324.56;4824042;29;20050;-69
2022/06/18 02:34:54;;;;;;;2.38;2.08;;;;;;;25.24;41.52;101329.34;4823970;29;20062;-69
2022/06/18 02:37:26;;;;;;;3.45;2.50;;;;;;;25.20;41.71;101328.44;4824475;29;20054;-69
2022/06/18 02:39:59;;;;;;;3.75;2.40;;;;;;;25.16;41.60;101321.97;4803602;29;20081;-69
2022/06/18 02:42:34;;;;;;;3.08;2.25;;;;;;;25.14;41.96;101336.34;4826428;29;20051;-69
2022/06/18 02:45:05;;;;;;;2.28;2.05;;;;;;;25.09;42.42;101334.59;4814354;29;20054;-69
2022/06/18 02:47:34;;;;;;;3.60;2.88;;;;;;;25.12;42.21;101335.88;4802973;29;20059;-69
2022/06/18 02:50:09;;;;;;;3.13;2.85;;;;;;;25.15;42.05;101343.56;4814599;29;20051;-69
2022/06/18 02:52:42;;;;;;;2.70;2.42;;;;;;;25.14;42.10;101344.72;4807056;29;20399;-69
2022/06/18 02:55:29;;;;;;;2.80;2.60;;;;;;;25.16;42.29;101335.97;4811153;29;20050;-69
2022/06/18 02:58:21;;;;;;;3.05;2.85;;;;;;;25.20;42.35;101342.47;4808359;29;20055;-69
2022/06/18 03:00:55;;;;;;;2.75;2.25;;;;;;;25.22;42.33;101343.72;4812264;29;20043;-69
2022/06/18 03:03:27;;;;;;;2.80;2.60;;;;;;;25.23;42.04;101345.34;4802434;29;20055;-69
2022/06/18 03:05:55;;;;;;;3.28;2.70;;;;;;;25.24;42.81;101340.56;4809216;29;20055;-69
2022/06/18 03:08:26;;;;;;;2.70;2.42;;;;;;;25.36;42.81;101350.84;4803792;29;20476;-69
2022/06/18 03:13:44;;;;;;;3.22;2.92;;;;;;;25.49;41.71;101355.19;4815761;29;20413;-68
2022/06/18 03:16:14;;;;;;;3.42;2.70;;;;;;;25.48;42.21;101350.72;4814412;29;20058;-69
2022/06/18 03:18:44;;;;;;;3.40;2.47;;;;;;;25.43;42.34;101353.84;4819550;29;20051;-69
2022/06/18 03:21:15;;;;;;;3.00;2.67;;;;;;;25.45;42.38;101357.06;4814015;29;20050;-69
2022/06/18 03:23:45;;;;;;;2.95;2.72;;;;;;;25.52;41.96;101347.22;4812463;29;20815;-67
2022/06/18 03:26:16;;;;;;;3.53;2.90;;;;;;;25.53;41.74;101351.63;4810708;29;20062;-67
2022/06/18 03:28:52;;;;;;;2.70;2.50;;;;;;;25.38;42.21;101351.31;4820714;29;20525;-69
2022/06/18 03:31:20;;;;;;;2.53;2.33;;;;;;;25.33;42.88;101360.78;4814843;29;20054;-69
2022/06/18 03:33:49;;;;;;;2.72;2.53;;;;;;;25.35;42.69;101366.03;4817825;29;20050;-69
2022/06/18 03:36:19;;;;;;;2.90;2.70;;;;;;;25.42;42.40;101363.38;4820262;29;20402;-69
2022/06/18 03:38:49;;;;;;;3.28;2.97;;;;;;;25.33;42.37;101368.38;4802052;29;20042;-69
2022/06/18 03:41:20;;;;;;;3.63;3.00;;;;;;;25.31;42.40;101363.13;4811086;29;20410;-69
2022/06/18 03:43:52;;;;;;;4.43;2.85;;;;;;;25.26;42.84;101368.22;4806099;29;20065;-69
2022/06/18 03:46:21;;;;;;;4.38;3.28;;;;;;;25.20;43.57;101360.09;4817111;29;20043;-69
2022/06/18 03:49:02;;;;;;;6.43;2.88;;;;;;;25.20;43.37;101365.69;4815149;29;20062;-67
2022/06/18 03:51:34;;;;;;;3.33;2.88;;;;;;;25.13;44.08;101359.91;4808227;29;20051;-69
2022/06/18 03:54:03;;;;;;;3.65;2.88;;;;;;;25.13;43.96;101359.91;4821421;29;20055;-69
2022/06/18 03:56:32;;;;;;;5.88;2.70;;;;;;;25.10;44.09;101369.03;4822825;29;20050;-69
2022/06/18 03:59:03;;;;;;;4.55;3.13;;;;;;;25.17;44.18;101362.81;4814602;29;20047;-69
2022/06/18 04:01:36;;;;;;;4.93;3.10;;;;;;;25.21;44.43;101370.09;4795721;29;20795;-69
2022/06/18 04:04:04;;;;;;;4.38;2.90;;;;;;;25.13;44.33;101373.91;4802717;29;20059;-69
2022/06/18 04:06:38;;;;;;;3.30;3.00;;;;;;;24.87;45.21;101383.63;4802639;29;20050;-69
2022/06/18 04:09:26;;;;;;;4.82;3.45;;;;;;;24.97;45.28;101387.88;4800859;29;20503;-69
2022/06/18 04:11:54;;;;;;;4.55;3.17;;;;;;;24.92;44.98;101400.16;4810010;29;20051;-68
2022/06/18 04:14:22;;;;;;;5.70;2.92;;;;;;;24.92;44.91;101385.38;4813219;29;20050;-69
2022/06/18 04:17:14;;;;;;;6.47;2.67;;;;;;;24.99;44.85;101393.97;4809081;29;20078;-69
2022/06/18 04:19:44;;;;;;;5.20;2.72;;;;;;;24.98;44.99;101394.31;4807330;29;20047;-68
2022/06/18 04:22:15;;;;;;;4.35;3.03;;;;;;;25.00;44.86;101391.94;4797158;29;20054;-68
2022/06/18 04:24:57;;;;;;;8.52;2.78;;;;;;;25.04;45.27;101398.47;4815340;29;20061;-69
2022/06/18 04:27:26;;;;;;;3.20;2.85;;;;;;;24.94;45.62;101391.41;4820750;29;20057;-68
2022/06/18 04:29:54;;;;;;;5.45;2.88;;;;;;;24.72;45.32;101392.81;4821638;29;20050;-68
2022/06/18 04:32:35;;;;;;;6.35;3.05;;;;;;;24.70;45.65;101395.97;4820125;29;20054;-68
2022/06/18 04:35:06;;;;;;;4.95;2.83;;;;;;;24.72;45.98;101390.81;4814592;29;20055;-68
2022/06/18 04:37:45;;;;;;;4.38;3.15;;;;;;;24.65;46.03;101391.44;4804948;29;20047;-69
2022/06/18 04:40:33;;;;;;;6.07;3.13;;;;;;;24.57;46.70;101392.41;4805218;29;20055;-68
2022/06/18 04:43:26;;;;;;;4.60;3.03;;;;;;;24.53;46.89;101392.28;4815074;29;20058;-68
2022/06/18 04:45:56;;;;;;;6.10;3.88;;;;;;;24.62;46.63;101389.34;4815204;29;20050;-68
2022/06/18 04:48:26;;;;;;;4.35;3.40;;;;;;;24.61;46.97;101393.31;4824807;29;20062;-68
2022/06/18 04:50:55;;;;;;;5.13;3.08;;;;;;;24.83;46.60;101393.94;4811833;29;20055;-68
2022/06/18 04:53:23;;;;;;;4.72;4.13;;;;;;;24.88;45.91;101396.44;4816632;29;20062;-68
2022/06/18 04:56:02;;;;;;;4.72;3.38;;;;;;;24.85;46.62;101399.97;4816228;29;20065;-68
2022/06/18 04:58:33;;;;;;;5.30;3.30;;;;;;;24.90;46.20;101399.72;4820633;29;20047;-68
2022/06/18 05:01:01;;;;;;;5.13;3.53;;;;;;;24.93;46.05;101409.41;4810741;29;20051;-68
2022/06/18 05:04:00;;;;;;;3.22;3.00;;;;;;;24.95;45.89;101407.88;4803132;29;20418;-68
2022/06/18 05:07:00;;;;;;;4.47;2.90;;;;;;;25.15;46.33;101402.34;4802483;29;20046;-68
2022/06/18 05:09:37;;;;;;;3.03;2.75;;;;;;;25.43;45.17;101401.47;4825483;29;20050;-68
2022/06/18 05:12:05;;;;;;;7.22;3.55;;;;;;;25.38;45.22;101400.91;4809186;29;20055;-68
2022/06/18 05:14:56;;;;;;;4.07;3.05;;;;;;;25.40;45.03;101398.56;4809402;29;20129;-68
2022/06/18 05:17:28;;;;;;;3.25;3.05;;;;;;;25.33;44.90;101400.00;4823892;29;20070;-68
2022/06/18 05:19:56;;;;;;;3.83;3.00;;;;;;;25.57;44.42;101411.41;4807116;29;20074;-68
2022/06/18 05:22:27;;;;;;;3.20;3.00;;;;;;;25.51;44.69;101396.81;4823697;29;20046;-68
2022/06/18 05:25:01;;;;;;;3.85;2.60;;;;;;;25.71;44.82;101411.72;4823053;29;20050;-68
2022/06/18 05:27:34;;;;;;;4.38;2.92;;;;;;;25.62;44.81;101408.34;4824670;29;20074;-68
2022/06/18 05:30:21;;;;;;;6.95;2.92;;;;;;;26.15;44.07;101404.31;4803331;29;20055;-78
2022/06/18 05:32:52;;;;;;;6.30;2.60;;;;;;;26.28;43.14;101404.97;4794239;29;20077;-78
2022/06/18 05:35:24;;;;;;;4.60;2.80;;;;;;;26.41;42.67;101411.28;4809141;29;20054;-76
2022/06/18 05:37:53;;;;;;;2.88;2.65;;;;;;;26.56;42.78;101413.19;4793502;29;20483;-77
2022/06/18 05:40:21;;;;;;;2.63;2.40;;;;;;;26.70;42.54;101403.41;4791026;29;20055;-76
2022/06/18 05:42:49;;;;;;;4.65;2.42;;;;;;;26.87;42.12;101406.94;4803905;29;20540;-77
2022/06/18 05:45:18;;;;;;;4.50;2.58;;;;;;;27.00;41.54;101411.22;4783031;29;20055;-76
2022/06/18 05:47:46;;;;;;;4.53;3.20;;;;;;;27.09;41.63;101408.94;4791075;29;20065;-76
2022/06/18 05:50:17;;;;;;;3.97;2.60;;;;;;;27.13;41.81;101411.03;4808515;29;20406;-76
2022/06/18 05:52:47;;;;;;;5.75;2.90;;;;;;;27.22;41.79;101418.00;4794100;29;20071;-76
2022/06/18 05:55:41;;;;;;;4.00;2.73;;;;;;;27.26;41.57;101418.06;4783991;29;20059;-77
2022/06/18 05:58:26;;;;;;;5.05;3.10;;;;;;;27.35;41.31;101427.06;4795161;29;20073;-76
2022/06/18 06:01:01;;;;;;;3.55;3.00;;;;;;;27.38;41.32;101425.50;4765537;29;20047;-76
2022/06/18 06:03:30;;;;;;;2.80;2.25;;;;;;;27.49;41.22;101432.13;4792310;29;20054;-77
2022/06/18 06:05:59;;;;;;;5.00;2.67;;;;;;;27.65;41.09;101431.16;4807991;29;20494;-77
2022/06/18 06:08:28;;;;;;;4.93;3.10;;;;;;;27.59;41.20;101427.88;4784720;29;20069;-77
2022/06/18 06:13:44;;;;;;;5.18;2.90;;;;;;;27.41;42.31;101435.19;4804788;29;20543;-76
2022/06/18 06:16:16;;;;;;;4.18;2.67;;;;;;;27.49;42.02;101431.28;4800649;29;20062;-75
2022/06/18 06:18:49;;;;;;;3.88;2.47;;;;;;;27.48;42.07;101443.72;4792800;29;20043;-76
2022/06/18 06:21:18;;;;;;;5.32;2.85;;;;;;;27.65;41.93;101442.41;4799289;29;20062;-76
2022/06/18 06:23:46;;;;;;;5.93;3.00;;;;;;;27.71;42.17;101440.91;4781386;29;20050;-76
2022/06/18 06:26:25;;;;;;;3.13;2.78;;;;;;;27.66;42.78;101438.41;4793259;29;20043;-76
2022/06/18 06:28:54;;;;;;;4.00;2.97;;;;;;;27.79;42.93;101457.88;4770717;29;20054;-75
2022/06/18 06:31:22;;;;;;;3.10;2.90;;;;;;;27.84;43.65;101447.13;4778522;29;20082;-75
2022/06/18 06:33:51;;;;;;;5.35;3.00;;;;;;;27.98;42.80;101445.72;4761106;29;20383;-76
2022/06/18 06:36:20;;;;;;;4.45;3.10;;;;;;;27.98;43.02;101438.09;4779855;29;20075;-76
2022/06/18 06:38:48;;;;;;;3.20;2.90;;;;;;;27.97;43.20;101436.47;4799334;29;20055;-75
2022/06/18 06:41:21;;;;;;;3.17;2.85;;;;;;;27.99;43.11;101433.25;4791318;29;20065;-76
2022/06/18 06:43:49;;;;;;;3.25;2.70;;;;;;;28.13;42.82;101438.28;4807881;29;20066;-78
2022/06/18 06:46:19;;;;;;;3.20;2.90;;;;;;;28.19;42.53;101430.31;4807113;29;20050;-76
2022/06/18 06:48:47;;;;;;;3.08;2.78;;;;;;;28.15;41.97;101436.69;4801996;29;20525;-76
2022/06/18 06:51:21;;;;;;;2.72;2.50;;;;;;;28.20;42.52;101440.38;4805628;29;20066;-76
2022/06/18 06:53:50;;;;;;;3.05;2.70;;;;;;;28.20;42.83;101427.09;4807892;29;20066;-78
2022/06/18 06:59:08;;;;;;;4.43;2.60;;;;;;;28.19;41.93;101433.94;4807569;29;20500;-77
2022/06/18 07:01:37;;;;;;;3.08;2.75;;;;;;;28.20;41.78;101429.13;4786868;29;20051;-76
2022/06/18 07:04:10;;;;;;;2.63;2.50;;;;;;;28.34;41.78;101432.16;4786104;29;20055;-76
2022/06/18 07:06:39;;;;;;;3.13;2.60;;;;;;;28.49;41.46;101437.97;4771199;29;20054;-77
2022/06/18 07:09:09;;;;;;;8.88;3.30;;;;;;;28.41;40.68;101437.06;4784328;29;20063;-76
2022/06/18 07:11:39;;;;;;;6.03;2.97;;;;;;;28.37;40.25;101431.41;4799023;29;20411;-77
2022/06/18 07:14:08;;;;;;;3.33;2.90;;;;;;;28.38;39.45;101435.81;4786812;29;20061;-77
2022/06/18 07:16:47;;;;;;;4.03;3.28;;;;;;;28.43;39.90;101435.50;4801988;29;20410;-77
2022/06/18 07:19:18;;;;;;;3.72;3.03;;;;;;;28.50;40.19;101429.13;4787032;29;20054;-77
2022/06/18 07:21:49;;;;;;;3.70;3.22;;;;;;;28.61;39.60;101426.44;4786184;29;20055;-77
2022/06/18 07:24:18;;;;;;;3.03;2.60;;;;;;;28.68;39.65;101437.78;4782371;29;20074;-77
2022/06/18 07:26:47;;;;;;;4.10;3.10;;;;;;;28.69;38.89;101435.78;4787475;29;20066;-76
2022/06/18 07:29:20;;;;;;;3.22;2.90;;;;;;;28.73;38.85;101435.81;4790409;29;20498;-76
2022/06/18 07:31:50;;;;;;;3.63;2.90;;;;;;;28.75;38.25;101434.25;4816748;29;20055;-76
2022/06/18 07:34:18;;;;;;;3.47;3.17;;;;;;;28.76;37.37;101435.84;4806633;29;20410;-78
2022/06/18 07:36:46;;;;;;;3.83;2.92;;;;;;;28.72;37.29;101426.56;4806244;29;20062;-77
2022/06/18 07:39:14;;;;;;;3.25;2.95;;;;;;;28.66;37.77;101426.09;4815823;29;20288;-77
2022/06/18 07:41:47;;;;;;;3.28;2.78;;;;;;;28.68;37.60;101432.16;4789116;29;20062;-77
2022/06/18 07:44:15;;;;;;;3.25;3.05;;;;;;;28.55;36.82;101430.78;4802444;29;20485;-77
2022/06/18 07:46:45;;;;;;;5.50;3.05;;;;;;;28.60;37.21;101421.19;4803632;29;20050;-76
2022/06/18 07:49:15;;;;;;;6.57;3.10;;;;;;;28.70;37.74;101423.31;4789947;29;20066;-76
2022/06/18 07:51:44;;;;;;;3.25;3.00;;;;;;;28.75;37.18;101416.53;4795365;29;20047;-77
2022/06/18 07:54:16;;;;;;;3.30;3.00;;;;;;;28.88;36.95;101426.34;4776304;29;20585;-76
2022/06/18 07:56:44;;;;;;;4.45;3.20;;;;;;;28.93;37.58;101420.34;4795251;29;20058;-77
2022/06/18 07:59:13;;;;;;;5.18;2.90;;;;;;;29.09;37.22;101419.31;4789352;29;20376;-76
2022/06/18 08:01:41;;;;;;;2.80;2.60;;;;;;;29.06;35.98;101414.44;4799233;29;20051;-76
2022/06/18 08:04:09;;;;;;;3.90;3.55;;;;;;;29.04;36.14;101422.47;4779837;29;20507;-76
2022/06/18 08:06:37;;;;;;;2.90;2.70;;;;;;;29.00;36.17;101411.19;4785743;29;20043;-76
2022/06/18 08:09:05;;;;;;;4.40;2.60;;;;;;;29.05;35.59;101407.19;4797170;29;20072;-76
2022/06/18 08:11:38;;;;;;;3.88;3.28;;;;;;;29.04;36.16;101405.56;4799123;29;20051;-75
2022/06/18 08:14:16;;;;;;;4.15;2.90;;;;;;;29.04;35.91;101399.94;4778262;29;20058;-76
2022/06/18 08:16:44;;;;;;;5.03;2.83;;;;;;;29.13;35.97;101403.25;4801957;29;20410;-76
2022/06/18 08:19:13;;;;;;;3.50;3.03;;;;;;;29.04;35.61;101397.94;4802584;29;20510;-76
2022/06/18 08:21:47;;;;;;;3.78;3.20;;;;;;;29.02;36.24;101405.16;4805867;29;20062;-76
2022/06/18 08:24:21;;;;;;;4.45;3.60;;;;;;;29.15;35.27;101412.13;4777738;29;20047;-76
2022/06/18 08:26:51;;;;;;;4.03;3.38;;;;;;;29.17;35.26;101409.72;4803854;29;20062;-76
2022/06/18 08:29:23;;;;;;;2.65;2.38;;;;;;;29.32;35.71;101409.84;4797471;29;20407;-76
2022/06/18 08:31:52;;;;;;;2.55;2.35;;;;;;;29.43;35.61;101409.91;4786268;29;20160;-76
2022/06/18 08:34:20;;;;;;;3.65;3.15;;;;;;;29.41;35.39;101398.22;4803940;29;20062;-76
2022/06/18 08:36:58;;;;;;;2.72;2.47;;;;;;;29.48;35.56;101401.91;4792861;29;20525;-76
2022/06/18 08:39:26;;;;;;;3.30;3.00;;;;;;;29.46;36.10;101401.47;4807329;29;20058;-76
2022/06/18 08:42:01;;;;;;;5.13;3.20;;;;;;;29.68;35.80;101390.38;4790164;29;20070;-76
2022/06/18 08:44:38;;;;;;;3.63;3.33;;;;;;;29.76;35.77;101394.84;4802322;29;20043;-76
2022/06/18 08:47:36;;;;;;;3.00;2.80;;;;;;;29.86;34.65;101389.69;4786413;29;20057;-76
2022/06/18 08:50:34;;;;;;;3.35;2.70;;;;;;;29.86;34.59;101398.16;4800111;29;20063;-76
2022/06/18 08:53:11;;;;;;;3.30;2.78;;;;;;;30.02;34.39;101401.44;4805879;29;20046;-76
2022/06/18 08:56:02;;;;;;;2.95;2.53;;;;;;;30.12;32.89;101397.09;4793210;29;20047;-76
2022/06/18 08:58:33;;;;;;;3.15;2.83;;;;;;;30.16;33.39;101391.47;4805837;29;20066;-76
2022/06/18 09:01:11;;;;;;;3.08;2.60;;;;;;;30.11;31.87;101389.03;4790455;29;21624;-76
2022/06/18 09:04:07;;;;;;;3.40;3.08;;;;;;;30.10;32.64;101398.69;4790318;29;20514;-76
2022/06/18 09:07:10;;;;;;;3.20;2.90;;;;;;;30.13;33.40;101401.53;4784848;29;20057;-76
2022/06/18 09:10:10;;;;;;;3.15;2.85;;;;;;;30.26;33.67;101401.19;4805893;29;20517;-76
2022/06/18 09:12:48;;;;;;;5.68;3.03;;;;;;;30.15;32.67;101399.13;4820906;29;20076;-76
2022/06/18 09:15:22;;;;;;;3.50;3.28;;;;;;;30.33;33.19;101406.84;4809951;29;20051;-76
2022/06/18 09:18:13;;;;;;;2.83;2.63;;;;;;;30.32;32.83;101402.41;4804198;29;20050;-76
2022/06/18 09:20:55;;;;;;;3.88;2.83;;;;;;;30.34;33.55;101413.31;4812428;29;20058;-76
2022/06/18 09:23:39;;;;;;;3.80;2.92;;;;;;;30.26;33.09;101404.78;4783926;29;20061;-76
2022/06/18 09:26:15;;;;;;;3.10;2.80;;;;;;;30.33;32.64;101403.19;4780531;29;20422;-77
2022/06/18 09:28:57;;;;;;;3.58;3.28;;;;;;;30.28;33.44;101402.41;4801077;29;20063;-76
2022/06/18 09:31:35;;;;;;;5.50;2.97;;;;;;;30.30;33.58;101396.38;4804992;29;20046;-76
2022/06/18 09:34:44;;;;;;;3.17;2.50;;;;;;;30.43;33.49;101397.59;4789435;29;20066;-75
2022/06/18 09:37:26;;;;;;;2.67;2.47;;;;;;;30.60;32.98;101403.72;4803284;29;20510;-76
2022/06/18 09:39:58;;;;;;;2.70;2.50;;;;;;;30.57;32.49;101401.66;4787438;29;20049;-75
2022/06/18 09:42:36;;;;;;;3.65;3.00;;;;;;;30.65;33.00;101400.47;4806682;29;20063;-75
2022/06/18 09:45:26;;;;;;;3.17;2.97;;;;;;;30.78;33.29;101397.31;4816431;29;20522;-76
2022/06/18 09:48:00;;;;;;;3.47;3.17;;;;;;;30.70;33.26;101397.28;4790932;29;20043;-77
2022/06/18 09:50:53;;;;;;;4.72;3.13;;;;;;;30.71;34.06;101389.63;4784742;29;20065;-76
2022/06/18 09:53:32;;;;;;;3.70;3.40;;;;;;;30.83;33.86;101403.38;4784055;29;20054;-76
2022/06/18 09:56:03;;;;;;;3.72;2.90;;;;;;;31.02;32.79;101406.22;4797088;29;20059;-76
2022/06/18 09:58:42;;;;;;;3.08;2.88;;;;;;;30.95;33.12;101388.06;4782276;29;20055;-76
2022/06/18 10:01:18;;;;;;;3.10;2.90;;;;;;;30.97;33.13;101384.81;4784291;29;20073;-77
2022/06/18 10:06:55;;;;;;;6.65;3.20;;;;;;;31.21;33.16;101382.38;4805515;29;20054;-76
2022/06/18 10:09:58;;;;;;;4.72;3.50;;;;;;;31.38;33.05;101384.41;4784454;29;20063;-76
2022/06/18 10:12:40;;;;;;;3.33;3.03;;;;;;;31.40;33.17;101384.03;4792548;29;20054;-77
2022/06/18 10:15:16;;;;;;;4.18;3.53;;;;;;;31.35;33.92;101368.28;4800579;29;20050;-76
2022/06/18 10:18:03;;;;;;;3.50;3.20;;;;;;;31.47;33.93;101363.41;4803115;29;20410;-77
2022/06/18 10:20:33;;;;;;;3.95;3.60;;;;;;;31.34;34.44;101374.34;4803262;29;20043;-76
2022/06/18 10:23:19;;;;;;;3.38;3.17;;;;;;;31.33;34.63;101365.03;4797085;29;20051;-77
2022/06/18 10:26:40;;;;;;;3.50;3.22;;;;;;;31.49;33.25;101381.59;4804437;29;20050;-76
2022/06/18 10:29:29;;;;;;;4.03;3.50;;;;;;;31.51;32.98;101375.50;4804366;29;20505;-76
2022/06/18 10:32:00;;;;;;;4.35;3.00;;;;;;;31.70;32.71;101367.78;4802286;29;20495;-76
2022/06/18 10:34:49;;;;;;;3.65;3.35;;;;;;;31.74;32.14;101368.59;4802783;29;20042;-77
2022/06/18 10:37:33;;;;;;;3.03;2.83;;;;;;;31.87;31.43;101361.28;4810312;29;20054;-76
2022/06/18 10:40:30;;;;;;;3.30;3.10;;;;;;;31.97;31.28;101358.84;4799145;29;20376;-76
2022/06/18 10:43:13;;;;;;;4.47;3.00;;;;;;;32.16;31.02;101366.84;4802034;29;20047;-76
2022/06/18 10:45:49;;;;;;;3.87;2.83;;;;;;;32.13;31.14;101342.19;4802206;29;20062;-76
2022/06/18 10:48:35;;;;;;;3.10;2.90;;;;;;;32.22;31.10;101352.25;4803536;29;20058;-77
2022/06/18 10:51:03;;;;;;;3.13;2.90;;;;;;;32.32;31.08;101362.72;4802593;29;20054;-76
2022/06/18 10:53:47;;;;;;;4.63;3.03;;;;;;;32.11;31.17;101361.59;4790775;29;20507;-77
2022/06/18 10:56:23;;;;;;;3.90;3.20;;;;;;;31.93;31.13;101341.06;4801311;29;20495;-76
2022/06/18 10:58:52;;;;;;;3.20;2.90;;;;;;;32.25;31.01;101357.09;4803916;29;20046;-77
2022/06/18 11:01:36;;;;;;;3.50;3.13;;;;;;;32.39;31.39;101340.00;4798151;29;20454;-77
2022/06/18 11:04:24;;;;;;;3.53;3.33;;;;;;;32.36;31.30;101340.84;4801109;29;20058;-76
2022/06/18 11:06:58;;;;;;;3.72;3.42;;;;;;;32.28;31.60;101333.59;4800360;29;20059;-76
2022/06/18 11:09:37;;;;;;;5.57;3.28;;;;;;;32.48;31.73;101341.59;4798286;29;20362;-76
2022/06/18 11:12:22;;;;;;;3.95;3.22;;;;;;;32.55;31.07;101339.53;4806846;29;20414;-77
2022/06/18 11:14:50;;;;;;;3.50;3.20;;;;;;;32.84;31.15;101347.03;4799001;29;20053;-76
2022/06/18 11:17:20;;;;;;;3.38;3.08;;;;;;;32.78;30.42;101321.16;4802532;29;20054;-76
2022/06/18 11:19:51;;;;;;;3.55;3.20;;;;;;;32.93;30.30;101321.03;4800828;29;20054;-76
2022/06/18 11:22:28;;;;;;;3.35;3.08;;;;;;;32.91;30.45;101326.31;4801085;29;20054;-76
2022/06/18 11:25:02;;;;;;;3.00;2.75;;;;;;;33.06;30.19;101318.50;4807498;29;20403;-76
2022/06/18 11:27:37;;;;;;;3.38;3.17;;;;;;;32.91;30.29;101317.81;4798810;29;20058;-76
2022/06/18 11:30:18;;;;;;;4.57;3.35;;;;;;;32.94;30.21;101322.66;4802549;29;20055;-77
2022/06/18 11:32:49;;;;;;;5.18;2.90;;;;;;;33.05;29.79;101314.06;4801436;29;20055;-77
2022/06/18 11:35:50;;;;;;;3.22;2.85;;;;;;;32.85;30.25;101311.78;4784415;29;20051;-77
2022/06/18 11:38:27;;;;;;;3.47;2.88;;;;;;;33.18;29.97;101306.63;4796562;29;20103;-76
2022/06/18 11:41:00;;;;;;;5.60;3.05;;;;;;;33.23;29.69;101313.91;4784519;29;20134;-77
2022/06/18 11:43:34;;;;;;;3.58;3.03;;;;;;;33.19;29.99;101308.25;4784041;29;20050;-76
2022/06/18 11:46:12;;;;;;;3.35;3.15;;;;;;;33.31;29.96;101306.91;4787572;29;20059;-77
2022/06/18 11:49:05;;;;;;;3.55;3.10;;;;;;;33.36;29.95;101302.81;4787285;29;20051;-77
2022/06/18 11:52:00;;;;;;;5.00;3.00;;;;;;;33.47;29.36;101299.88;4781997;29;20055;-77
2022/06/18 11:54:37;;;;;;;3.47;2.88;;;;;;;33.56;29.12;101293.72;4788064;29;20050;-76
2022/06/18 11:57:23;;;;;;;4.72;3.00;;;;;;;33.68;29.13;101290.31;4785600;29;20051;-77
2022/06/18 12:00:07;;;;;;;3.15;2.63;;;;;;;33.41;29.02;101276.81;4798023;29;20053;-78
2022/06/18 12:02:38;;;;;;;4.65;2.88;;;;;;;33.15;28.93;101284.81;4800748;29;20062;-76
2022/06/18 12:05:36;;;;;;;3.00;2.80;;;;;;;33.20;29.23;101278.69;4768281;29;20058;-77
2022/06/18 12:08:05;;;;;;;3.47;3.17;;;;;;;33.13;29.37;101273.06;4774498;29;20063;-77
2022/06/18 12:10:42;;;;;;;3.60;3.33;;;;;;;33.50;29.13;101274.31;4793301;29;20061;-77
2022/06/18 12:13:23;;;;;;;3.72;3.33;;;;;;;33.46;28.99;101270.69;4804145;29;20059;-76
2022/06/18 12:16:24;;;;;;;3.50;3.20;;;;;;;33.56;28.63;101273.84;4790575;29;20050;-76
2022/06/18 12:19:10;;;;;;;4.60;3.30;;;;;;;33.84;28.83;101257.66;4775815;29;20518;-76
2022/06/18 12:21:49;;;;;;;3.17;2.97;;;;;;;34.15;28.33;101260.50;4805602;29;20503;-76